sensor_id;sensor_type;location;lat;lon;timestamp;P1;durP1;ratioP1;P2;durP2;ratioP2
4323;SDS011;2175;51.018;6.994;2023-02-12T00:00:40;85.33;;;46.90;;
4323;SDS011;2175;51.018;6.994;2023-02-12T00:03:07;90.83;;;49.47;;
4323;SDS011;2175;51.018;6.994;2023-02-12T00:05:33;95.00;;;49.27;;
4323;SDS011;2175;51.018;6.994;2023-02-12T00:08:01;89.17;;;48.77;;
4323;SDS011;2175;51.018;6.994;2023-02-12T00:10:27;85.63;;;47.00;;
4323;SDS011;2175;51.018;6.994;2023-02-12T00:12:53;100.70;;;49.57;;
4323;SDS011;2175;51.018;6.994;2023-02-12T00:15:19;94.37;;;51.37;;
4323;SDS011;2175;51.018;6.994;2023-02-12T00:17:45;93.13;;;49.30;;
4323;SDS011;2175;51.018;6.994;2023-02-12T00:20:10;93.23;;;48.03;;
4323;SDS011;2175;51.018;6.994;2023-02-12T00:22:36;86.60;;;48.47;;
4323;SDS011;2175;51.018;6.994;2023-02-12T00:25:02;93.43;;;49.20;;
4323;SDS011;2175;51.018;6.994;2023-02-12T00:27:30;83.70;;;46.73;;
4323;SDS011;2175;51.018;6.994;2023-02-12T00:29:57;84.07;;;46.87;;
4323;SDS011;2175;51.018;6.994;2023-02-12T00:32:22;84.93;;;45.60;;
4323;SDS011;2175;51.018;6.994;2023-02-12T00:34:48;93.17;;;45.33;;
4323;SDS011;2175;51.018;6.994;2023-02-12T00:37:14;89.43;;;46.60;;
4323;SDS011;2175;51.018;6.994;2023-02-12T00:39:39;82.73;;;46.07;;
4323;SDS011;2175;51.018;6.994;2023-02-12T00:42:05;85.43;;;44.67;;
4323;SDS011;2175;51.018;6.994;2023-02-12T00:44:31;84.70;;;46.37;;
4323;SDS011;2175;51.018;6.994;2023-02-12T00:46:57;79.60;;;44.43;;
4323;SDS011;2175;51.018;6.994;2023-02-12T00:49:26;91.00;;;47.20;;
4323;SDS011;2175;51.018;6.994;2023-02-12T00:51:58;87.03;;;45.77;;
4323;SDS011;2175;51.018;6.994;2023-02-12T00:54:28;84.13;;;46.50;;
4323;SDS011;2175;51.018;6.994;2023-02-12T00:56:55;85.77;;;44.07;;
4323;SDS011;2175;51.018;6.994;2023-02-12T00:59:21;97.33;;;48.70;;
4323;SDS011;2175;51.018;6.994;2023-02-12T01:01:48;85.80;;;45.90;;
4323;SDS011;2175;51.018;6.994;2023-02-12T01:04:14;80.73;;;44.77;;
4323;SDS011;2175;51.018;6.994;2023-02-12T01:06:41;78.53;;;44.20;;
4323;SDS011;2175;51.018;6.994;2023-02-12T01:09:06;90.33;;;46.63;;
4323;SDS011;2175;51.018;6.994;2023-02-12T01:11:32;90.03;;;46.30;;
4323;SDS011;2175;51.018;6.994;2023-02-12T01:13:58;88.03;;;45.47;;
4323;SDS011;2175;51.018;6.994;2023-02-12T01:16:24;86.30;;;46.53;;
4323;SDS011;2175;51.018;6.994;2023-02-12T01:18:51;84.70;;;44.87;;
4323;SDS011;2175;51.018;6.994;2023-02-12T01:21:19;87.10;;;46.37;;
4323;SDS011;2175;51.018;6.994;2023-02-12T01:23:46;91.27;;;47.80;;
4323;SDS011;2175;51.018;6.994;2023-02-12T01:26:13;93.60;;;50.47;;
4323;SDS011;2175;51.018;6.994;2023-02-12T01:28:41;91.47;;;48.50;;
4323;SDS011;2175;51.018;6.994;2023-02-12T01:31:09;94.53;;;48.13;;
4323;SDS011;2175;51.018;6.994;2023-02-12T01:33:36;86.53;;;45.63;;
4323;SDS011;2175;51.018;6.994;2023-02-12T01:36:01;89.40;;;50.30;;
4323;SDS011;2175;51.018;6.994;2023-02-12T01:38:27;95.47;;;49.87;;
4323;SDS011;2175;51.018;6.994;2023-02-12T01:41:00;79.87;;;46.50;;
4323;SDS011;2175;51.018;6.994;2023-02-12T01:46:39;93.67;;;48.50;;
4323;SDS011;2175;51.018;6.994;2023-02-12T01:49:07;90.77;;;49.03;;
4323;SDS011;2175;51.018;6.994;2023-02-12T01:51:36;97.30;;;52.30;;
4323;SDS011;2175;51.018;6.994;2023-02-12T01:54:05;89.20;;;46.50;;
4323;SDS011;2175;51.018;6.994;2023-02-12T01:56:32;79.77;;;44.80;;
4323;SDS011;2175;51.018;6.994;2023-02-12T01:58:58;84.07;;;44.83;;
4323;SDS011;2175;51.018;6.994;2023-02-12T02:01:25;82.37;;;46.10;;
4323;SDS011;2175;51.018;6.994;2023-02-12T02:03:54;87.33;;;44.80;;
4323;SDS011;2175;51.018;6.994;2023-02-12T02:06:26;78.77;;;45.47;;
4323;SDS011;2175;51.018;6.994;2023-02-12T02:09:02;79.27;;;45.10;;
4323;SDS011;2175;51.018;6.994;2023-02-12T02:11:28;91.97;;;47.03;;
4323;SDS011;2175;51.018;6.994;2023-02-12T02:14:12;86.67;;;48.67;;
4323;SDS011;2175;51.018;6.994;2023-02-12T02:19:46;95.50;;;50.60;;
4323;SDS011;2175;51.018;6.994;2023-02-12T02:22:35;88.30;;;48.50;;
4323;SDS011;2175;51.018;6.994;2023-02-12T02:25:14;86.80;;;46.47;;
4323;SDS011;2175;51.018;6.994;2023-02-12T02:31:03;86.80;;;45.53;;
4323;SDS011;2175;51.018;6.994;2023-02-12T02:44:45;87.27;;;45.03;;
4323;SDS011;2175;51.018;6.994;2023-02-12T02:47:27;76.70;;;44.80;;
4323;SDS011;2175;51.018;6.994;2023-02-12T02:50:08;89.37;;;51.20;;
4323;SDS011;2175;51.018;6.994;2023-02-12T02:53:20;85.53;;;45.47;;
4323;SDS011;2175;51.018;6.994;2023-02-12T02:58:31;84.07;;;45.43;;
4323;SDS011;2175;51.018;6.994;2023-02-12T03:01:44;94.50;;;47.20;;
4323;SDS011;2175;51.018;6.994;2023-02-12T03:04:16;84.97;;;47.73;;
4323;SDS011;2175;51.018;6.994;2023-02-12T03:07:02;79.37;;;46.50;;
4323;SDS011;2175;51.018;6.994;2023-02-12T03:09:46;78.63;;;46.60;;
4323;SDS011;2175;51.018;6.994;2023-02-12T03:12:21;82.60;;;44.90;;
4323;SDS011;2175;51.018;6.994;2023-02-12T03:15:02;89.00;;;45.77;;
4323;SDS011;2175;51.018;6.994;2023-02-12T03:17:40;78.90;;;46.13;;
4323;SDS011;2175;51.018;6.994;2023-02-12T03:20:13;79.93;;;45.63;;
4323;SDS011;2175;51.018;6.994;2023-02-12T03:22:52;84.33;;;45.47;;
4323;SDS011;2175;51.018;6.994;2023-02-12T03:25:27;85.20;;;46.90;;
4323;SDS011;2175;51.018;6.994;2023-02-12T03:28:10;74.27;;;44.60;;
4323;SDS011;2175;51.018;6.994;2023-02-12T03:30:54;85.77;;;45.23;;
4323;SDS011;2175;51.018;6.994;2023-02-12T03:33:36;83.20;;;43.70;;
4323;SDS011;2175;51.018;6.994;2023-02-12T03:38:51;79.87;;;44.07;;
4323;SDS011;2175;51.018;6.994;2023-02-12T03:41:30;77.57;;;43.40;;
4323;SDS011;2175;51.018;6.994;2023-02-12T03:44:10;86.00;;;45.57;;
4323;SDS011;2175;51.018;6.994;2023-02-12T03:46:39;83.10;;;44.30;;
4323;SDS011;2175;51.018;6.994;2023-02-12T03:52:09;72.20;;;42.90;;
4323;SDS011;2175;51.018;6.994;2023-02-12T03:54:35;71.27;;;42.77;;
4323;SDS011;2175;51.018;6.994;2023-02-12T03:57:02;76.30;;;43.47;;
4323;SDS011;2175;51.018;6.994;2023-02-12T03:59:33;78.63;;;43.30;;
4323;SDS011;2175;51.018;6.994;2023-02-12T04:02:01;79.40;;;43.13;;
4323;SDS011;2175;51.018;6.994;2023-02-12T04:04:28;75.33;;;43.30;;
4323;SDS011;2175;51.018;6.994;2023-02-12T04:06:54;86.23;;;43.30;;
4323;SDS011;2175;51.018;6.994;2023-02-12T04:09:20;72.17;;;41.20;;
4323;SDS011;2175;51.018;6.994;2023-02-12T04:12:24;75.10;;;41.00;;
4323;SDS011;2175;51.018;6.994;2023-02-12T04:20:26;67.50;;;39.97;;
4323;SDS011;2175;51.018;6.994;2023-02-12T04:23:16;76.27;;;41.70;;
4323;SDS011;2175;51.018;6.994;2023-02-12T04:31:29;75.90;;;43.57;;
4323;SDS011;2175;51.018;6.994;2023-02-12T04:36:37;75.17;;;42.27;;
4323;SDS011;2175;51.018;6.994;2023-02-12T04:39:09;68.90;;;39.63;;
4323;SDS011;2175;51.018;6.994;2023-02-12T04:41:40;76.13;;;43.10;;
4323;SDS011;2175;51.018;6.994;2023-02-12T04:44:13;73.40;;;41.27;;
4323;SDS011;2175;51.018;6.994;2023-02-12T04:46:43;70.23;;;40.10;;
4323;SDS011;2175;51.018;6.994;2023-02-12T04:49:11;74.60;;;41.93;;
4323;SDS011;2175;51.018;6.994;2023-02-12T04:51:40;77.10;;;41.07;;
4323;SDS011;2175;51.018;6.994;2023-02-12T04:54:05;72.37;;;39.90;;
4323;SDS011;2175;51.018;6.994;2023-02-12T04:56:31;74.20;;;41.70;;
4323;SDS011;2175;51.018;6.994;2023-02-12T04:58:57;72.73;;;39.77;;
4323;SDS011;2175;51.018;6.994;2023-02-12T05:01:22;66.50;;;40.63;;
4323;SDS011;2175;51.018;6.994;2023-02-12T05:03:49;80.33;;;42.63;;
4323;SDS011;2175;51.018;6.994;2023-02-12T05:06:16;67.23;;;40.87;;
4323;SDS011;2175;51.018;6.994;2023-02-12T05:08:42;67.77;;;40.23;;
4323;SDS011;2175;51.018;6.994;2023-02-12T05:11:08;68.70;;;41.57;;
4323;SDS011;2175;51.018;6.994;2023-02-12T05:13:34;71.73;;;41.63;;
4323;SDS011;2175;51.018;6.994;2023-02-12T05:16:04;77.77;;;42.47;;
4323;SDS011;2175;51.018;6.994;2023-02-12T05:18:31;65.23;;;37.30;;
4323;SDS011;2175;51.018;6.994;2023-02-12T05:20:57;67.30;;;39.13;;
4323;SDS011;2175;51.018;6.994;2023-02-12T05:23:34;65.20;;;38.00;;
4323;SDS011;2175;51.018;6.994;2023-02-12T05:26:03;71.20;;;39.57;;
4323;SDS011;2175;51.018;6.994;2023-02-12T05:28:30;68.00;;;41.07;;
4323;SDS011;2175;51.018;6.994;2023-02-12T05:31:00;65.70;;;39.37;;
4323;SDS011;2175;51.018;6.994;2023-02-12T05:33:26;75.37;;;41.03;;
4323;SDS011;2175;51.018;6.994;2023-02-12T05:35:52;72.37;;;41.13;;
4323;SDS011;2175;51.018;6.994;2023-02-12T05:38:19;69.30;;;38.53;;
4323;SDS011;2175;51.018;6.994;2023-02-12T05:40:45;67.87;;;38.07;;
4323;SDS011;2175;51.018;6.994;2023-02-12T05:43:10;70.80;;;39.13;;
4323;SDS011;2175;51.018;6.994;2023-02-12T05:45:36;58.97;;;36.77;;
4323;SDS011;2175;51.018;6.994;2023-02-12T05:48:02;64.77;;;37.27;;
4323;SDS011;2175;51.018;6.994;2023-02-12T05:50:28;64.10;;;36.57;;
4323;SDS011;2175;51.018;6.994;2023-02-12T05:52:54;59.60;;;35.07;;
4323;SDS011;2175;51.018;6.994;2023-02-12T05:55:20;64.30;;;37.90;;
4323;SDS011;2175;51.018;6.994;2023-02-12T05:57:45;61.03;;;36.50;;
4323;SDS011;2175;51.018;6.994;2023-02-12T06:00:11;57.87;;;34.60;;
4323;SDS011;2175;51.018;6.994;2023-02-12T06:02:37;60.13;;;36.10;;
4323;SDS011;2175;51.018;6.994;2023-02-12T06:05:03;71.20;;;38.77;;
4323;SDS011;2175;51.018;6.994;2023-02-12T06:07:28;64.33;;;37.53;;
4323;SDS011;2175;51.018;6.994;2023-02-12T06:09:54;68.27;;;38.53;;
4323;SDS011;2175;51.018;6.994;2023-02-12T06:12:20;73.30;;;39.80;;
4323;SDS011;2175;51.018;6.994;2023-02-12T06:14:46;67.63;;;39.87;;
4323;SDS011;2175;51.018;6.994;2023-02-12T06:17:11;71.93;;;38.10;;
4323;SDS011;2175;51.018;6.994;2023-02-12T06:19:37;68.87;;;39.13;;
4323;SDS011;2175;51.018;6.994;2023-02-12T06:22:03;68.53;;;39.53;;
4323;SDS011;2175;51.018;6.994;2023-02-12T06:24:29;66.20;;;37.53;;
4323;SDS011;2175;51.018;6.994;2023-02-12T06:26:54;72.27;;;40.47;;
4323;SDS011;2175;51.018;6.994;2023-02-12T06:29:20;64.00;;;39.50;;
4323;SDS011;2175;51.018;6.994;2023-02-12T06:31:46;68.27;;;41.27;;
4323;SDS011;2175;51.018;6.994;2023-02-12T06:34:13;74.57;;;41.60;;
4323;SDS011;2175;51.018;6.994;2023-02-12T06:36:41;60.00;;;38.07;;
4323;SDS011;2175;51.018;6.994;2023-02-12T06:39:09;68.60;;;39.70;;
4323;SDS011;2175;51.018;6.994;2023-02-12T06:41:35;76.23;;;39.40;;
4323;SDS011;2175;51.018;6.994;2023-02-12T06:44:01;73.00;;;39.70;;
4323;SDS011;2175;51.018;6.994;2023-02-12T06:46:27;70.03;;;42.10;;
4323;SDS011;2175;51.018;6.994;2023-02-12T06:48:53;71.97;;;41.70;;
4323;SDS011;2175;51.018;6.994;2023-02-12T06:51:20;73.37;;;42.10;;
4323;SDS011;2175;51.018;6.994;2023-02-12T06:53:47;68.53;;;42.10;;
4323;SDS011;2175;51.018;6.994;2023-02-12T06:56:14;65.37;;;38.87;;
4323;SDS011;2175;51.018;6.994;2023-02-12T06:58:42;66.50;;;39.77;;
4323;SDS011;2175;51.018;6.994;2023-02-12T07:01:16;66.40;;;39.43;;
4323;SDS011;2175;51.018;6.994;2023-02-12T07:03:50;70.53;;;37.73;;
4323;SDS011;2175;51.018;6.994;2023-02-12T07:06:20;67.30;;;38.77;;
4323;SDS011;2175;51.018;6.994;2023-02-12T07:08:47;72.03;;;41.20;;
4323;SDS011;2175;51.018;6.994;2023-02-12T07:11:13;76.27;;;39.73;;
4323;SDS011;2175;51.018;6.994;2023-02-12T07:13:39;62.53;;;36.20;;
4323;SDS011;2175;51.018;6.994;2023-02-12T07:16:09;62.70;;;37.00;;
4323;SDS011;2175;51.018;6.994;2023-02-12T07:18:36;69.77;;;38.10;;
4323;SDS011;2175;51.018;6.994;2023-02-12T07:21:03;65.30;;;37.67;;
4323;SDS011;2175;51.018;6.994;2023-02-12T07:23:29;63.57;;;37.67;;
4323;SDS011;2175;51.018;6.994;2023-02-12T07:28:51;64.73;;;38.87;;
4323;SDS011;2175;51.018;6.994;2023-02-12T07:31:20;71.10;;;41.40;;
4323;SDS011;2175;51.018;6.994;2023-02-12T07:33:48;69.83;;;40.73;;
4323;SDS011;2175;51.018;6.994;2023-02-12T07:36:17;84.03;;;45.53;;
4323;SDS011;2175;51.018;6.994;2023-02-12T07:38:44;79.47;;;44.47;;
4323;SDS011;2175;51.018;6.994;2023-02-12T07:43:41;72.90;;;41.83;;
4323;SDS011;2175;51.018;6.994;2023-02-12T07:46:09;74.93;;;43.73;;
4323;SDS011;2175;51.018;6.994;2023-02-12T07:48:41;73.30;;;42.40;;
4323;SDS011;2175;51.018;6.994;2023-02-12T07:51:08;79.43;;;45.30;;
4323;SDS011;2175;51.018;6.994;2023-02-12T07:53:36;68.40;;;41.43;;
4323;SDS011;2175;51.018;6.994;2023-02-12T07:56:15;76.13;;;43.77;;
4323;SDS011;2175;51.018;6.994;2023-02-12T07:58:43;76.43;;;43.47;;
4323;SDS011;2175;51.018;6.994;2023-02-12T08:01:20;72.23;;;41.27;;
4323;SDS011;2175;51.018;6.994;2023-02-12T08:03:48;76.30;;;43.47;;
4323;SDS011;2175;51.018;6.994;2023-02-12T08:06:24;72.60;;;42.30;;
4323;SDS011;2175;51.018;6.994;2023-02-12T08:08:55;72.90;;;43.87;;
4323;SDS011;2175;51.018;6.994;2023-02-12T08:11:23;75.40;;;42.43;;
4323;SDS011;2175;51.018;6.994;2023-02-12T08:13:49;70.40;;;43.10;;
4323;SDS011;2175;51.018;6.994;2023-02-12T08:16:17;75.53;;;43.07;;
4323;SDS011;2175;51.018;6.994;2023-02-12T08:18:44;79.67;;;43.47;;
4323;SDS011;2175;51.018;6.994;2023-02-12T08:21:11;71.80;;;40.20;;
4323;SDS011;2175;51.018;6.994;2023-02-12T08:23:42;80.80;;;43.37;;
4323;SDS011;2175;51.018;6.994;2023-02-12T08:26:12;74.00;;;44.73;;
4323;SDS011;2175;51.018;6.994;2023-02-12T08:28:44;79.30;;;43.67;;
4323;SDS011;2175;51.018;6.994;2023-02-12T08:31:13;77.20;;;44.70;;
4323;SDS011;2175;51.018;6.994;2023-02-12T08:33:47;79.10;;;45.60;;
4323;SDS011;2175;51.018;6.994;2023-02-12T08:36:15;78.63;;;46.73;;
4323;SDS011;2175;51.018;6.994;2023-02-12T08:38:45;75.10;;;44.20;;
4323;SDS011;2175;51.018;6.994;2023-02-12T08:41:12;76.13;;;43.77;;
4323;SDS011;2175;51.018;6.994;2023-02-12T08:43:42;83.03;;;46.17;;
4323;SDS011;2175;51.018;6.994;2023-02-12T08:46:15;82.77;;;45.10;;
4323;SDS011;2175;51.018;6.994;2023-02-12T08:48:42;73.70;;;44.67;;
4323;SDS011;2175;51.018;6.994;2023-02-12T08:51:12;82.53;;;46.53;;
4323;SDS011;2175;51.018;6.994;2023-02-12T08:53:42;82.30;;;44.40;;
4323;SDS011;2175;51.018;6.994;2023-02-12T08:56:09;80.17;;;46.00;;
4323;SDS011;2175;51.018;6.994;2023-02-12T08:58:36;81.53;;;46.83;;
4323;SDS011;2175;51.018;6.994;2023-02-12T09:01:02;85.20;;;47.20;;
4323;SDS011;2175;51.018;6.994;2023-02-12T09:03:29;80.80;;;47.27;;
4323;SDS011;2175;51.018;6.994;2023-02-12T09:05:55;82.37;;;47.80;;
4323;SDS011;2175;51.018;6.994;2023-02-12T09:08:21;85.50;;;47.53;;
4323;SDS011;2175;51.018;6.994;2023-02-12T09:10:46;81.50;;;47.00;;
4323;SDS011;2175;51.018;6.994;2023-02-12T09:13:13;81.73;;;47.23;;
4323;SDS011;2175;51.018;6.994;2023-02-12T09:15:40;89.30;;;47.77;;
4323;SDS011;2175;51.018;6.994;2023-02-12T09:18:07;90.67;;;51.50;;
4323;SDS011;2175;51.018;6.994;2023-02-12T09:20:35;96.27;;;52.43;;
4323;SDS011;2175;51.018;6.994;2023-02-12T09:23:03;90.20;;;51.37;;
4323;SDS011;2175;51.018;6.994;2023-02-12T09:25:30;96.73;;;54.30;;
4323;SDS011;2175;51.018;6.994;2023-02-12T09:27:58;98.63;;;50.23;;
4323;SDS011;2175;51.018;6.994;2023-02-12T09:30:24;95.60;;;50.57;;
4323;SDS011;2175;51.018;6.994;2023-02-12T09:32:50;91.73;;;52.80;;
4323;SDS011;2175;51.018;6.994;2023-02-12T09:35:15;93.07;;;53.43;;
4323;SDS011;2175;51.018;6.994;2023-02-12T09:37:42;93.07;;;53.43;;
4323;SDS011;2175;51.018;6.994;2023-02-12T09:40:10;92.83;;;52.50;;
4323;SDS011;2175;51.018;6.994;2023-02-12T09:43:16;89.33;;;51.80;;
4323;SDS011;2175;51.018;6.994;2023-02-12T09:48:59;85.90;;;51.20;;
4323;SDS011;2175;51.018;6.994;2023-02-12T09:51:39;90.67;;;50.87;;
4323;SDS011;2175;51.018;6.994;2023-02-12T09:54:15;86.87;;;50.97;;
4323;SDS011;2175;51.018;6.994;2023-02-12T09:56:44;83.90;;;48.30;;
4323;SDS011;2175;51.018;6.994;2023-02-12T10:02:13;85.73;;;50.20;;
4323;SDS011;2175;51.018;6.994;2023-02-12T10:04:43;81.97;;;46.60;;
4323;SDS011;2175;51.018;6.994;2023-02-12T10:10:20;83.43;;;47.90;;
4323;SDS011;2175;51.018;6.994;2023-02-12T10:12:57;76.93;;;45.90;;
4323;SDS011;2175;51.018;6.994;2023-02-12T10:15:36;74.70;;;45.77;;
4323;SDS011;2175;51.018;6.994;2023-02-12T10:21:05;78.67;;;45.87;;
4323;SDS011;2175;51.018;6.994;2023-02-12T10:24:06;82.27;;;46.23;;
4323;SDS011;2175;51.018;6.994;2023-02-12T10:26:55;73.43;;;43.97;;
4323;SDS011;2175;51.018;6.994;2023-02-12T10:29:26;66.10;;;41.80;;
4323;SDS011;2175;51.018;6.994;2023-02-12T10:32:02;68.83;;;43.03;;
4323;SDS011;2175;51.018;6.994;2023-02-12T10:34:32;68.40;;;39.20;;
4323;SDS011;2175;51.018;6.994;2023-02-12T10:37:04;71.83;;;42.07;;
4323;SDS011;2175;51.018;6.994;2023-02-12T10:39:35;71.67;;;41.50;;
4323;SDS011;2175;51.018;6.994;2023-02-12T10:42:08;73.73;;;42.37;;
4323;SDS011;2175;51.018;6.994;2023-02-12T10:44:38;66.03;;;40.07;;
4323;SDS011;2175;51.018;6.994;2023-02-12T10:47:03;63.60;;;39.20;;
4323;SDS011;2175;51.018;6.994;2023-02-12T10:49:30;63.40;;;39.83;;
4323;SDS011;2175;51.018;6.994;2023-02-12T10:54:44;65.00;;;38.70;;
4323;SDS011;2175;51.018;6.994;2023-02-12T10:59:46;53.03;;;35.70;;
4323;SDS011;2175;51.018;6.994;2023-02-12T11:02:30;58.00;;;33.80;;
4323;SDS011;2175;51.018;6.994;2023-02-12T11:04:58;57.70;;;36.73;;
4323;SDS011;2175;51.018;6.994;2023-02-12T11:07:25;55.40;;;35.27;;
4323;SDS011;2175;51.018;6.994;2023-02-12T11:09:52;54.27;;;33.47;;
4323;SDS011;2175;51.018;6.994;2023-02-12T11:15:19;54.17;;;33.60;;
4323;SDS011;2175;51.018;6.994;2023-02-12T11:23:23;48.80;;;30.27;;
4323;SDS011;2175;51.018;6.994;2023-02-12T11:26:03;52.13;;;31.33;;
4323;SDS011;2175;51.018;6.994;2023-02-12T11:28:59;48.43;;;31.63;;
4323;SDS011;2175;51.018;6.994;2023-02-12T11:31:33;48.00;;;30.10;;
4323;SDS011;2175;51.018;6.994;2023-02-12T11:34:08;53.37;;;31.70;;
4323;SDS011;2175;51.018;6.994;2023-02-12T11:36:43;50.00;;;31.43;;
4323;SDS011;2175;51.018;6.994;2023-02-12T11:39:26;50.83;;;32.40;;
4323;SDS011;2175;51.018;6.994;2023-02-12T11:41:52;51.13;;;31.07;;
4323;SDS011;2175;51.018;6.994;2023-02-12T11:44:24;49.93;;;33.50;;
4323;SDS011;2175;51.018;6.994;2023-02-12T11:46:55;47.33;;;32.10;;
4323;SDS011;2175;51.018;6.994;2023-02-12T11:49:26;50.63;;;31.33;;
4323;SDS011;2175;51.018;6.994;2023-02-12T11:51:54;44.97;;;29.30;;
4323;SDS011;2175;51.018;6.994;2023-02-12T11:54:22;54.77;;;30.80;;
4323;SDS011;2175;51.018;6.994;2023-02-12T11:56:51;43.90;;;29.07;;
4323;SDS011;2175;51.018;6.994;2023-02-12T12:01:55;48.00;;;28.73;;
4323;SDS011;2175;51.018;6.994;2023-02-12T12:04:25;47.40;;;28.53;;
4323;SDS011;2175;51.018;6.994;2023-02-12T12:07:00;45.40;;;29.77;;
4323;SDS011;2175;51.018;6.994;2023-02-12T12:09:48;46.03;;;28.87;;
4323;SDS011;2175;51.018;6.994;2023-02-12T12:15:37;45.10;;;27.80;;
4323;SDS011;2175;51.018;6.994;2023-02-12T12:24:10;47.13;;;27.50;;
4323;SDS011;2175;51.018;6.994;2023-02-12T12:26:41;41.23;;;25.70;;
4323;SDS011;2175;51.018;6.994;2023-02-12T12:31:53;34.97;;;23.40;;
4323;SDS011;2175;51.018;6.994;2023-02-12T12:34:23;34.00;;;22.90;;
4323;SDS011;2175;51.018;6.994;2023-02-12T12:39:53;38.60;;;24.00;;
4323;SDS011;2175;51.018;6.994;2023-02-12T12:42:30;43.00;;;23.40;;
4323;SDS011;2175;51.018;6.994;2023-02-12T12:50:30;39.90;;;23.73;;
4323;SDS011;2175;51.018;6.994;2023-02-12T13:07:27;41.23;;;21.80;;
4323;SDS011;2175;51.018;6.994;2023-02-12T13:15:38;33.23;;;21.27;;
4323;SDS011;2175;51.018;6.994;2023-02-12T13:18:13;33.07;;;21.93;;
4323;SDS011;2175;51.018;6.994;2023-02-12T13:21:14;32.80;;;20.93;;
4323;SDS011;2175;51.018;6.994;2023-02-12T13:26:57;34.10;;;21.10;;
4323;SDS011;2175;51.018;6.994;2023-02-12T13:29:25;37.23;;;23.13;;
4323;SDS011;2175;51.018;6.994;2023-02-12T13:32:54;32.23;;;21.00;;
4323;SDS011;2175;51.018;6.994;2023-02-12T13:35:03;34.43;;;21.97;;
4323;SDS011;2175;51.018;6.994;2023-02-12T13:37:35;32.33;;;20.97;;
4323;SDS011;2175;51.018;6.994;2023-02-12T13:40:15;34.50;;;24.10;;
4323;SDS011;2175;51.018;6.994;2023-02-12T13:51:25;41.43;;;22.63;;
4323;SDS011;2175;51.018;6.994;2023-02-12T13:56:57;38.20;;;23.50;;
4323;SDS011;2175;51.018;6.994;2023-02-12T13:59:39;39.00;;;24.53;;
4323;SDS011;2175;51.018;6.994;2023-02-12T14:02:26;37.20;;;24.90;;
4323;SDS011;2175;51.018;6.994;2023-02-12T14:07:48;39.00;;;24.13;;
4323;SDS011;2175;51.018;6.994;2023-02-12T14:10:21;37.70;;;26.53;;
4323;SDS011;2175;51.018;6.994;2023-02-12T14:12:57;38.53;;;26.43;;
4323;SDS011;2175;51.018;6.994;2023-02-12T14:15:35;39.93;;;26.10;;
4323;SDS011;2175;51.018;6.994;2023-02-12T14:18:22;42.37;;;27.20;;
4323;SDS011;2175;51.018;6.994;2023-02-12T14:21:52;43.63;;;28.33;;
4323;SDS011;2175;51.018;6.994;2023-02-12T14:23:53;43.23;;;26.60;;
4323;SDS011;2175;51.018;6.994;2023-02-12T14:26:19;48.97;;;27.87;;
4323;SDS011;2175;51.018;6.994;2023-02-12T14:41:48;38.47;;;24.77;;
4323;SDS011;2175;51.018;6.994;2023-02-12T14:46:53;44.13;;;26.77;;
4323;SDS011;2175;51.018;6.994;2023-02-12T14:49:26;46.10;;;27.87;;
4323;SDS011;2175;51.018;6.994;2023-02-12T14:52:02;42.93;;;26.03;;
4323;SDS011;2175;51.018;6.994;2023-02-12T14:54:44;43.67;;;26.07;;
4323;SDS011;2175;51.018;6.994;2023-02-12T15:02:54;38.13;;;25.90;;
4323;SDS011;2175;51.018;6.994;2023-02-12T15:05:29;36.30;;;24.63;;
4323;SDS011;2175;51.018;6.994;2023-02-12T15:08:18;38.17;;;23.53;;
4323;SDS011;2175;51.018;6.994;2023-02-12T15:16:48;36.73;;;23.40;;
4323;SDS011;2175;51.018;6.994;2023-02-12T15:25:27;37.33;;;23.03;;
4323;SDS011;2175;51.018;6.994;2023-02-12T15:27:55;33.23;;;23.30;;
4323;SDS011;2175;51.018;6.994;2023-02-12T15:30:23;36.23;;;23.97;;
4323;SDS011;2175;51.018;6.994;2023-02-12T15:32:51;36.97;;;23.47;;
4323;SDS011;2175;51.018;6.994;2023-02-12T15:35:33;38.63;;;25.60;;
4323;SDS011;2175;51.018;6.994;2023-02-12T15:38:04;36.63;;;23.73;;
4323;SDS011;2175;51.018;6.994;2023-02-12T15:40:34;33.80;;;22.07;;
4323;SDS011;2175;51.018;6.994;2023-02-12T15:43:04;33.70;;;23.20;;
4323;SDS011;2175;51.018;6.994;2023-02-12T15:45:48;33.57;;;22.33;;
4323;SDS011;2175;51.018;6.994;2023-02-12T15:48:30;32.33;;;22.60;;
4323;SDS011;2175;51.018;6.994;2023-02-12T15:53:54;37.33;;;22.10;;
4323;SDS011;2175;51.018;6.994;2023-02-12T15:56:25;37.50;;;23.50;;
4323;SDS011;2175;51.018;6.994;2023-02-12T15:58:52;39.87;;;25.50;;
4323;SDS011;2175;51.018;6.994;2023-02-12T16:01:25;32.73;;;23.60;;
4323;SDS011;2175;51.018;6.994;2023-02-12T16:04:06;40.57;;;23.60;;
4323;SDS011;2175;51.018;6.994;2023-02-12T16:06:46;33.90;;;23.60;;
4323;SDS011;2175;51.018;6.994;2023-02-12T16:09:17;37.57;;;22.60;;
4323;SDS011;2175;51.018;6.994;2023-02-12T16:11:51;33.23;;;23.00;;
4323;SDS011;2175;51.018;6.994;2023-02-12T16:14:19;33.37;;;22.00;;
4323;SDS011;2175;51.018;6.994;2023-02-12T16:19:26;36.47;;;23.17;;
4323;SDS011;2175;51.018;6.994;2023-02-12T16:24:39;31.83;;;21.37;;
4323;SDS011;2175;51.018;6.994;2023-02-12T16:27:17;30.83;;;20.17;;
4323;SDS011;2175;51.018;6.994;2023-02-12T16:29:51;31.83;;;19.93;;
4323;SDS011;2175;51.018;6.994;2023-02-12T16:32:27;35.67;;;21.93;;
4323;SDS011;2175;51.018;6.994;2023-02-12T16:35:21;31.43;;;20.23;;
4323;SDS011;2175;51.018;6.994;2023-02-12T16:37:43;33.73;;;21.30;;
4323;SDS011;2175;51.018;6.994;2023-02-12T16:42:37;29.30;;;19.90;;
4323;SDS011;2175;51.018;6.994;2023-02-12T16:47:50;33.90;;;21.50;;
4323;SDS011;2175;51.018;6.994;2023-02-12T16:50:26;29.30;;;19.67;;
4323;SDS011;2175;51.018;6.994;2023-02-12T16:53:01;31.80;;;21.83;;
4323;SDS011;2175;51.018;6.994;2023-02-12T16:55:29;36.70;;;20.70;;
4323;SDS011;2175;51.018;6.994;2023-02-12T16:58:00;29.77;;;19.27;;
4323;SDS011;2175;51.018;6.994;2023-02-12T17:00:26;35.50;;;21.10;;
4323;SDS011;2175;51.018;6.994;2023-02-12T17:02:54;32.73;;;21.87;;
4323;SDS011;2175;51.018;6.994;2023-02-12T17:05:20;30.50;;;20.87;;
4323;SDS011;2175;51.018;6.994;2023-02-12T17:07:47;33.13;;;22.20;;
4323;SDS011;2175;51.018;6.994;2023-02-12T17:10:14;33.17;;;21.20;;
4323;SDS011;2175;51.018;6.994;2023-02-12T17:12:51;29.83;;;20.50;;
4323;SDS011;2175;51.018;6.994;2023-02-12T17:15:21;28.83;;;19.53;;
4323;SDS011;2175;51.018;6.994;2023-02-12T17:17:57;33.43;;;19.93;;
4323;SDS011;2175;51.018;6.994;2023-02-12T17:20:22;32.30;;;21.13;;
4323;SDS011;2175;51.018;6.994;2023-02-12T17:22:52;30.00;;;20.93;;
4323;SDS011;2175;51.018;6.994;2023-02-12T17:25:19;28.70;;;19.70;;
4323;SDS011;2175;51.018;6.994;2023-02-12T17:27:45;34.20;;;21.33;;
4323;SDS011;2175;51.018;6.994;2023-02-12T17:30:17;34.20;;;19.03;;
4323;SDS011;2175;51.018;6.994;2023-02-12T17:32:48;37.40;;;21.03;;
4323;SDS011;2175;51.018;6.994;2023-02-12T17:35:13;28.50;;;18.70;;
4323;SDS011;2175;51.018;6.994;2023-02-12T17:37:40;32.07;;;18.77;;
4323;SDS011;2175;51.018;6.994;2023-02-12T17:40:05;37.00;;;20.60;;
4323;SDS011;2175;51.018;6.994;2023-02-12T17:42:32;33.97;;;20.70;;
4323;SDS011;2175;51.018;6.994;2023-02-12T17:44:57;30.07;;;19.70;;
4323;SDS011;2175;51.018;6.994;2023-02-12T17:47:27;30.93;;;20.20;;
4323;SDS011;2175;51.018;6.994;2023-02-12T17:49:53;31.03;;;21.10;;
4323;SDS011;2175;51.018;6.994;2023-02-12T17:52:25;39.40;;;20.50;;
4323;SDS011;2175;51.018;6.994;2023-02-12T17:54:50;32.40;;;20.60;;
4323;SDS011;2175;51.018;6.994;2023-02-12T17:57:16;33.60;;;19.53;;
4323;SDS011;2175;51.018;6.994;2023-02-12T17:59:42;34.90;;;22.10;;
4323;SDS011;2175;51.018;6.994;2023-02-12T18:02:09;29.30;;;19.53;;
4323;SDS011;2175;51.018;6.994;2023-02-12T18:04:35;35.33;;;21.10;;
4323;SDS011;2175;51.018;6.994;2023-02-12T18:07:01;41.27;;;21.43;;
4323;SDS011;2175;51.018;6.994;2023-02-12T18:09:28;34.83;;;23.27;;
4323;SDS011;2175;51.018;6.994;2023-02-12T18:11:54;34.40;;;21.70;;